Time;durP1;ratioP1;P1;durP2;ratioP2;P2;SDS_P1;SDS_P2;PMS_P1;PMS_P2;Temp;Humidity;BMP_temperature;BMP_pressure;BME280_temperature;BME280_humidity;BME280_pressure;Samples;Min_cycle;Max_cycle;Signal;HPM_P1;HPM_P2
2022/12/17 13:08:20;;;;;;;;;35.33;33.00;;;;;;;;5037446;28;8838;-74
2022/12/17 13:10:48;;;;;;;;;35.33;31.33;;;;;;;;5055115;28;8842;-74
2022/12/17 13:13:26;;;;;;;;;42.00;35.67;;;;;;;;5060095;28;9660;-73
2022/12/17 13:15:56;;;;;;;;;32.33;31.33;;;;;;;;5068426;28;8866;-73
2022/12/17 13:18:28;;;;;;;;;32.67;29.67;;;;;;;;5045333;28;8840;-74
2022/12/17 13:21:02;;;;;;;;;32.33;24.33;;;;;;;;5048459;28;8831;-74
2022/12/17 13:23:33;;;;;;;;;19.67;19.67;;;;;;;;5058044;28;8863;-74
2022/12/17 13:26:22;;;;;;;;;39.33;32.33;;;;;;;;5070562;28;8875;-74
2022/12/17 13:29:02;;;;;;;;;32.67;30.00;;;;;;;;5059435;28;8919;-73
2022/12/17 13:31:33;;;;;;;;;32.33;31.33;;;;;;;;5072200;28;9713;-74
2022/12/17 13:34:08;;;;;;;;;33.00;28.33;;;;;;;;5063524;28;8852;-74
2022/12/17 13:36:46;;;;;;;;;40.67;36.00;;;;;;;;5067763;28;8832;-74
2022/12/17 13:39:28;;;;;;;;;25.67;24.67;;;;;;;;5032847;28;8882;-73
2022/12/17 13:41:55;;;;;;;;;34.33;34.33;;;;;;;;5045709;28;8949;-74
2022/12/17 13:44:25;;;;;;;;;41.67;36.33;;;;;;;;5070481;28;8844;-74
2022/12/17 13:46:54;;;;;;;;;38.33;35.33;;;;;;;;5064131;28;8834;-74
2022/12/17 13:49:23;;;;;;;;;53.00;43.33;;;;;;;;5065326;28;8837;-74
2022/12/17 13:52:02;;;;;;;;;53.50;45.50;;;;;;;;5063434;28;8842;-74
2022/12/17 13:54:30;;;;;;;;;79.25;63.00;;;;;;;;5064796;28;8907;-74
2022/12/17 13:57:08;;;;;;;;;46.33;35.33;;;;;;;;5064118;28;8854;-74
2022/12/17 13:59:35;;;;;;;;;44.67;38.00;;;;;;;;5065646;28;8861;-74
2022/12/17 14:02:05;;;;;;;;;31.33;27.00;;;;;;;;5062766;28;8795;-74
2022/12/17 14:04:33;;;;;;;;;50.00;36.33;;;;;;;;5064777;28;9658;-74
2022/12/17 14:07:05;;;;;;;;;64.25;54.50;;;;;;;;5039231;28;8858;-74
2022/12/17 14:09:36;;;;;;;;;59.00;48.75;;;;;;;;5055173;28;8854;-74
2022/12/17 14:12:24;;;;;;;;;54.00;45.25;;;;;;;;5059829;28;8876;-73
2022/12/17 14:14:54;;;;;;;;;47.00;31.00;;;;;;;;5067698;28;9630;-72
2022/12/17 14:17:23;;;;;;;;;28.33;25.33;;;;;;;;5061521;28;8840;-73
2022/12/17 14:19:56;;;;;;;;;40.33;36.33;;;;;;;;5059063;28;8990;-73
2022/12/17 14:22:32;;;;;;;;;37.67;37.00;;;;;;;;5045701;28;8996;-73
2022/12/17 14:25:00;;;;;;;;;53.67;42.00;;;;;;;;5068371;28;8875;-74
2022/12/17 14:27:33;;;;;;;;;31.00;31.00;;;;;;;;5049207;28;8845;-74
2022/12/17 14:30:00;;;;;;;;;47.67;40.00;;;;;;;;5047057;28;8927;-73
2022/12/17 14:32:33;;;;;;;;;46.00;45.00;;;;;;;;5066331;28;8824;-73
2022/12/17 14:35:01;;;;;;;;;46.33;42.67;;;;;;;;5068790;28;8895;-73
2022/12/17 14:37:31;;;;;;;;;44.33;42.67;;;;;;;;5049935;28;8856;-74
2022/12/17 14:40:02;;;;;;;;;44.33;36.33;;;;;;;;5054178;28;8894;-73
2022/12/17 14:42:31;;;;;;;;;39.67;35.33;;;;;;;;5067472;28;8850;-73
2022/12/17 14:45:00;;;;;;;;;38.00;38.00;;;;;;;;5067089;28;9723;-73
2022/12/17 14:47:29;;;;;;;;;39.00;37.33;;;;;;;;5063784;28;8828;-73
2022/12/17 14:50:00;;;;;;;;;28.67;26.67;;;;;;;;5066274;28;8864;-74
2022/12/17 14:52:38;;;;;;;;;36.33;36.33;;;;;;;;5065321;28;8919;-74
2022/12/17 14:55:29;;;;;;;;;39.00;31.67;;;;;;;;5068920;28;8860;-74
2022/12/17 14:58:08;;;;;;;;;30.00;26.00;;;;;;;;5067452;28;8846;-74
2022/12/17 15:00:38;;;;;;;;;38.33;33.67;;;;;;;;5048729;28;8806;-73
2022/12/17 15:03:05;;;;;;;;;34.00;30.33;;;;;;;;5072246;28;8874;-74
2022/12/17 15:05:35;;;;;;;;;41.00;35.67;;;;;;;;5067659;28;8866;-73
2022/12/17 15:08:04;;;;;;;;;42.00;31.67;;;;;;;;5064168;28;8857;-73
2022/12/17 15:10:32;;;;;;;;;51.67;42.67;;;;;;;;5060100;28;9009;-73
2022/12/17 15:12:59;;;;;;;;;40.00;40.00;;;;;;;;5052365;28;8857;-74
2022/12/17 15:15:27;;;;;;;;;51.00;39.00;;;;;;;;5066567;28;8854;-74
2022/12/17 15:17:54;;;;;;;;;61.00;48.00;;;;;;;;5046941;28;8964;-74
2022/12/17 15:20:22;;;;;;;;;57.33;46.33;;;;;;;;5050237;28;8982;-74
2022/12/17 15:22:49;;;;;;;;;48.67;43.33;;;;;;;;5070765;28;8839;-74
2022/12/17 15:25:20;;;;;;;;;53.33;46.00;;;;;;;;5068174;28;8883;-74
2022/12/17 15:27:47;;;;;;;;;49.33;44.00;;;;;;;;5062833;28;8996;-73
2022/12/17 15:30:16;;;;;;;;;44.00;41.00;;;;;;;;5049323;28;8830;-73
2022/12/17 15:32:44;;;;;;;;;43.00;40.00;;;;;;;;5063507;28;8868;-73
2022/12/17 15:35:12;;;;;;;;;52.00;44.75;;;;;;;;5053219;28;8868;-74
2022/12/17 15:37:40;;;;;;;;;60.00;48.50;;;;;;;;5063787;28;8856;-74
2022/12/17 15:40:10;;;;;;;;;45.00;37.00;;;;;;;;5066266;28;8842;-74
2022/12/17 15:45:25;;;;;;;;;57.25;46.75;;;;;;;;5066032;28;8819;-74
2022/12/17 15:47:52;;;;;;;;;52.75;45.25;;;;;;;;5049851;28;9714;-73
2022/12/17 15:50:20;;;;;;;;;53.00;46.75;;;;;;;;5062654;28;8816;-71
2022/12/17 15:52:47;;;;;;;;;55.25;43.50;;;;;;;;5067315;28;8892;-73
2022/12/17 15:55:15;;;;;;;;;46.67;38.00;;;;;;;;5035559;28;8965;-72
2022/12/17 15:57:44;;;;;;;;;53.67;41.67;;;;;;;;5049988;28;8994;-73
2022/12/17 16:00:14;;;;;;;;;43.33;39.33;;;;;;;;5061861;28;8865;-73
2022/12/17 16:02:41;;;;;;;;;41.00;31.33;;;;;;;;5083222;28;8842;-73
2022/12/17 16:05:09;;;;;;;;;35.33;32.33;;;;;;;;5060342;28;8851;-73
2022/12/17 16:07:37;;;;;;;;;37.67;32.67;;;;;;;;5063390;28;8911;-73
2022/12/17 16:10:05;;;;;;;;;46.33;37.67;;;;;;;;5067804;28;8867;-73
2022/12/17 16:12:33;;;;;;;;;48.00;43.25;;;;;;;;5061873;28;8809;-73
2022/12/17 16:15:02;;;;;;;;;36.00;30.33;;;;;;;;5066395;28;9615;-73
2022/12/17 16:17:29;;;;;;;;;43.33;33.33;;;;;;;;5062264;28;8866;-73
2022/12/17 16:19:56;;;;;;;;;41.00;39.00;;;;;;;;5058864;28;9616;-73
2022/12/17 16:22:24;;;;;;;;;50.75;39.50;;;;;;;;5065947;28;8841;-72
2022/12/17 16:24:51;;;;;;;;;39.00;37.50;;;;;;;;5065752;28;8863;-74
2022/12/17 16:27:19;;;;;;;;;47.50;45.00;;;;;;;;5066118;28;8860;-73
2022/12/17 16:29:47;;;;;;;;;52.00;47.75;;;;;;;;5061766;28;8871;-73
2022/12/17 16:32:16;;;;;;;;;47.50;45.25;;;;;;;;5061047;28;8806;-74
2022/12/17 16:34:44;;;;;;;;;45.00;44.50;;;;;;;;5043292;28;8983;-72
2022/12/17 16:37:12;;;;;;;;;52.25;47.00;;;;;;;;5065323;28;8842;-72
2022/12/17 16:39:39;;;;;;;;;38.75;36.50;;;;;;;;5067141;28;8960;-72
2022/12/17 16:42:07;;;;;;;;;42.75;42.25;;;;;;;;5067098;28;8860;-79
2022/12/17 16:44:34;;;;;;;;;42.25;41.75;;;;;;;;5079358;28;8852;-79
2022/12/17 16:47:02;;;;;;;;;48.75;47.50;;;;;;;;5052150;28;8828;-79
2022/12/17 16:49:31;;;;;;;;;42.50;42.50;;;;;;;;5065520;28;8856;-79
2022/12/17 16:51:59;;;;;;;;;49.25;46.75;;;;;;;;5065560;28;8844;-78
2022/12/17 16:54:31;;;;;;;;;49.00;47.25;;;;;;;;5055536;28;8830;-79
2022/12/17 16:56:58;;;;;;;;;48.50;39.50;;;;;;;;5083294;28;8858;-82
2022/12/17 16:59:26;;;;;;;;;66.00;54.00;;;;;;;;5080476;28;8844;-81
2022/12/17 17:02:02;;;;;;;;;53.00;46.25;;;;;;;;5080391;28;8904;-81
2022/12/17 17:04:32;;;;;;;;;50.25;46.00;;;;;;;;5081260;28;8817;-82
2022/12/17 17:07:00;;;;;;;;;53.50;48.25;;;;;;;;5060688;28;8845;-82
2022/12/17 17:09:27;;;;;;;;;51.25;43.50;;;;;;;;5044496;28;8893;-79
2022/12/17 17:11:56;;;;;;;;;50.75;40.00;;;;;;;;5041124;28;8902;-82
2022/12/17 17:14:23;;;;;;;;;57.50;51.00;;;;;;;;5083434;28;8849;-81
2022/12/17 17:16:51;;;;;;;;;54.00;46.50;;;;;;;;5071904;28;8836;-82
2022/12/17 17:19:19;;;;;;;;;36.00;36.00;;;;;;;;5077556;28;8986;-84
2022/12/17 17:21:52;;;;;;;;;67.50;52.50;;;;;;;;5063064;28;8824;-83
2022/12/17 17:24:22;;;;;;;;;57.00;49.25;;;;;;;;5081185;28;8869;-85
2022/12/17 17:26:51;;;;;;;;;54.25;47.25;;;;;;;;5081281;28;8896;-88
2022/12/17 17:29:19;;;;;;;;;52.50;42.25;;;;;;;;5083476;28;8848;-85
2022/12/17 17:31:46;;;;;;;;;57.50;48.25;;;;;;;;5069126;28;9579;-84
2022/12/17 17:34:15;;;;;;;;;66.25;54.75;;;;;;;;5080593;28;8915;-83
2022/12/17 17:36:43;;;;;;;;;45.75;43.50;;;;;;;;5073903;28;8825;-84
2022/12/17 17:39:12;;;;;;;;;47.50;45.75;;;;;;;;5061111;28;8865;-82
2022/12/17 17:41:39;;;;;;;;;49.75;45.75;;;;;;;;5064828;28;8889;-83
2022/12/17 17:44:09;;;;;;;;;53.00;48.25;;;;;;;;5051063;28;8854;-82
2022/12/17 17:46:37;;;;;;;;;53.25;49.00;;;;;;;;5040246;28;8827;-82
2022/12/17 17:49:06;;;;;;;;;65.25;54.25;;;;;;;;5083572;28;8858;-84
2022/12/17 17:51:36;;;;;;;;;55.50;48.50;;;;;;;;5070333;28;8876;-83
2022/12/17 17:54:04;;;;;;;;;34.00;33.25;;;;;;;;5092987;28;8870;-78
2022/12/17 17:56:46;;;;;;;;;47.25;45.00;;;;;;;;5083766;28;8851;-81
2022/12/17 17:59:17;;;;;;;;;47.25;45.00;;;;;;;;5088405;28;8860;-84
2022/12/17 18:01:46;;;;;;;;;58.25;46.25;;;;;;;;5080402;28;8919;-83
2022/12/17 18:04:15;;;;;;;;;81.75;65.75;;;;;;;;5085160;28;8854;-79
2022/12/17 18:06:44;;;;;;;;;44.75;43.50;;;;;;;;5077762;28;8858;-80
2022/12/17 18:09:12;;;;;;;;;62.00;48.50;;;;;;;;5096099;28;8869;-82
2022/12/17 18:11:43;;;;;;;;;54.25;48.50;;;;;;;;5074924;28;8979;-79
2022/12/17 18:14:11;;;;;;;;;59.50;50.75;;;;;;;;5069694;28;8844;-81
2022/12/17 18:16:41;;;;;;;;;50.50;45.75;;;;;;;;5047332;28;8851;-79
2022/12/17 18:19:12;;;;;;;;;70.75;57.00;;;;;;;;5063135;28;8984;-77
2022/12/17 18:21:40;;;;;;;;;45.75;42.50;;;;;;;;5067015;28;9634;-78
2022/12/17 18:24:13;;;;;;;;;48.25;46.50;;;;;;;;5045242;28;9576;-79
2022/12/17 18:26:45;;;;;;;;;45.25;43.75;;;;;;;;5066849;28;8816;-81
2022/12/17 18:29:17;;;;;;;;;63.00;50.25;;;;;;;;5060249;28;8838;-81
2022/12/17 18:31:50;;;;;;;;;49.50;45.25;;;;;;;;5081579;28;9133;-78
2022/12/17 18:34:26;;;;;;;;;49.25;43.25;;;;;;;;5082351;28;8824;-82
2022/12/17 18:36:56;;;;;;;;;57.25;49.50;;;;;;;;5087253;28;8823;-80
2022/12/17 18:39:24;;;;;;;;;39.00;38.25;;;;;;;;5081361;28;8837;-79
2022/12/17 18:44:39;;;;;;;;;52.50;47.25;;;;;;;;5069951;28;8833;-81
2022/12/17 18:47:07;;;;;;;;;67.75;53.25;;;;;;;;5076672;28;8868;-80
2022/12/17 18:49:35;;;;;;;;;53.00;48.25;;;;;;;;5056666;28;8960;-80
2022/12/17 18:52:02;;;;;;;;;42.75;42.75;;;;;;;;5053049;28;8860;-77
2022/12/17 18:54:32;;;;;;;;;52.50;48.25;;;;;;;;5074931;28;8846;-77
2022/12/17 18:57:01;;;;;;;;;44.50;43.00;;;;;;;;5060719;28;9609;-76
2022/12/17 18:59:31;;;;;;;;;55.75;48.50;;;;;;;;5075072;28;8873;-79
2022/12/17 19:01:58;;;;;;;;;50.25;46.75;;;;;;;;5064905;28;8794;-78
2022/12/17 19:04:28;;;;;;;;;58.00;51.75;;;;;;;;5059187;28;8894;-77
2022/12/17 19:06:55;;;;;;;;;44.50;42.75;;;;;;;;5068759;28;8837;-77
2022/12/17 19:09:24;;;;;;;;;55.25;50.00;;;;;;;;5058720;28;8899;-78
2022/12/17 19:11:53;;;;;;;;;40.00;39.50;;;;;;;;5070154;28;8841;-76
2022/12/17 19:14:22;;;;;;;;;40.00;40.00;;;;;;;;5073592;28;8947;-76
2022/12/17 19:16:50;;;;;;;;;58.50;52.00;;;;;;;;5067329;28;8893;-77
2022/12/17 19:19:17;;;;;;;;;53.25;48.75;;;;;;;;5069661;28;8848;-78
2022/12/17 19:21:47;;;;;;;;;43.50;39.50;;;;;;;;5067372;28;8868;-78
2022/12/17 19:24:16;;;;;;;;;44.50;44.50;;;;;;;;5066146;28;8862;-82
2022/12/17 19:26:44;;;;;;;;;46.00;45.00;;;;;;;;5072163;28;8845;-81
2022/12/17 19:29:12;;;;;;;;;44.00;38.50;;;;;;;;5065383;28;8910;-80
2022/12/17 19:31:43;;;;;;;;;44.50;41.75;;;;;;;;5064830;28;8818;-83
2022/12/17 19:34:11;;;;;;;;;52.00;48.00;;;;;;;;5078345;28;8839;-79
2022/12/17 19:36:40;;;;;;;;;42.50;42.50;;;;;;;;5073199;28;9676;-81
2022/12/17 19:39:10;;;;;;;;;56.00;50.75;;;;;;;;5067722;28;8881;-84
2022/12/17 19:41:38;;;;;;;;;63.50;55.75;;;;;;;;5073727;28;8849;-83
2022/12/17 19:44:07;;;;;;;;;44.25;38.50;;;;;;;;5069807;28;8849;-83
2022/12/17 19:46:36;;;;;;;;;34.50;34.50;;;;;;;;5061784;28;8866;-83
2022/12/17 19:49:06;;;;;;;;;58.50;49.75;;;;;;;;5072725;28;8824;-81
2022/12/17 19:51:34;;;;;;;;;58.00;51.75;;;;;;;;5085602;28;8851;-83
2022/12/17 19:54:02;;;;;;;;;44.75;42.25;;;;;;;;5070635;28;8871;-81
2022/12/17 19:56:31;;;;;;;;;53.75;48.75;;;;;;;;5068330;28;8846;-82
2022/12/17 19:59:01;;;;;;;;;33.00;32.00;;;;;;;;5065959;28;8835;-82
2022/12/17 20:01:30;;;;;;;;;58.50;52.75;;;;;;;;5051329;28;9628;-83
2022/12/17 20:04:11;;;;;;;;;59.50;48.75;;;;;;;;5058951;28;8835;-84
2022/12/17 20:06:39;;;;;;;;;59.75;52.25;;;;;;;;5068224;28;8841;-83
2022/12/17 20:09:39;;;;;;;;;69.00;58.25;;;;;;;;5060141;28;8838;-84
2022/12/17 20:12:16;;;;;;;;;63.00;54.25;;;;;;;;5066634;28;8864;-81
2022/12/17 20:14:43;;;;;;;;;51.75;47.75;;;;;;;;5056730;28;8832;-83
2022/12/17 20:17:11;;;;;;;;;64.00;52.50;;;;;;;;5066034;28;8848;-84
2022/12/17 20:19:41;;;;;;;;;60.00;52.00;;;;;;;;5083620;28;8916;-84
2022/12/17 20:22:18;;;;;;;;;40.75;36.75;;;;;;;;5058866;28;8870;-83
2022/12/17 20:24:46;;;;;;;;;60.75;51.50;;;;;;;;5081135;28;8876;-82
2022/12/17 20:27:14;;;;;;;;;49.25;46.50;;;;;;;;5058245;28;8840;-81
2022/12/17 20:29:41;;;;;;;;;39.25;36.75;;;;;;;;5071179;28;8840;-82
2022/12/17 20:32:18;;;;;;;;;39.50;38.00;;;;;;;;5063916;28;8868;-82
2022/12/17 20:34:47;;;;;;;;;46.75;43.00;;;;;;;;5075923;28;8841;-83
2022/12/17 20:37:15;;;;;;;;;64.50;50.75;;;;;;;;5077648;28;8840;-84
2022/12/17 20:39:42;;;;;;;;;74.75;59.75;;;;;;;;5066158;28;9653;-83
2022/12/17 20:42:10;;;;;;;;;72.50;60.25;;;;;;;;5057292;28;8880;-82
2022/12/17 20:44:38;;;;;;;;;62.50;49.25;;;;;;;;5054829;28;8842;-83
2022/12/17 20:47:06;;;;;;;;;58.00;51.50;;;;;;;;5036757;28;8850;-83
2022/12/17 20:49:34;;;;;;;;;58.75;52.25;;;;;;;;5071030;28;8991;-81
2022/12/17 20:52:06;;;;;;;;;54.75;47.50;;;;;;;;5050969;28;8858;-82
2022/12/17 20:54:34;;;;;;;;;56.25;49.00;;;;;;;;5051641;28;8872;-82
2022/12/17 20:57:01;;;;;;;;;65.50;51.50;;;;;;;;5067668;28;8892;-83
2022/12/17 20:59:29;;;;;;;;;64.75;54.00;;;;;;;;5048651;28;9615;-82
2022/12/17 21:01:57;;;;;;;;;58.25;51.50;;;;;;;;5046131;28;8871;-82
2022/12/17 21:04:27;;;;;;;;;64.25;53.50;;;;;;;;5050791;28;8858;-83
2022/12/17 21:06:54;;;;;;;;;61.00;54.00;;;;;;;;5051692;28;8825;-82
2022/12/17 21:09:24;;;;;;;;;57.25;48.00;;;;;;;;5048320;28;8840;-82
2022/12/17 21:11:51;;;;;;;;;59.00;47.00;;;;;;;;5035150;28;8854;-83
2022/12/17 21:14:19;;;;;;;;;61.00;51.50;;;;;;;;5066837;28;8879;-83
2022/12/17 21:16:47;;;;;;;;;63.00;51.75;;;;;;;;5070251;28;8829;-82
2022/12/17 21:19:15;;;;;;;;;48.50;46.75;;;;;;;;5068296;28;8947;-81
2022/12/17 21:21:43;;;;;;;;;50.75;45.25;;;;;;;;5068661;28;8838;-83
2022/12/17 21:24:11;;;;;;;;;46.50;40.50;;;;;;;;5046692;28;9629;-83
2022/12/17 21:26:42;;;;;;;;;56.00;49.50;;;;;;;;5068984;28;8890;-82
2022/12/17 21:29:10;;;;;;;;;63.50;51.75;;;;;;;;5069330;28;8976;-81
2022/12/17 21:31:39;;;;;;;;;59.50;52.25;;;;;;;;5054368;28;8798;-82
2022/12/17 21:34:10;;;;;;;;;73.75;61.00;;;;;;;;5066064;28;9602;-82
2022/12/17 21:36:38;;;;;;;;;68.50;57.75;;;;;;;;5066759;28;8840;-82
2022/12/17 21:39:07;;;;;;;;;65.25;56.25;;;;;;;;5069180;28;8832;-81
2022/12/17 21:41:37;;;;;;;;;80.00;64.50;;;;;;;;5068415;28;8850;-82
2022/12/17 21:44:08;;;;;;;;;84.00;65.00;;;;;;;;5063233;28;8823;-81
2022/12/17 21:46:35;;;;;;;;;66.00;56.50;;;;;;;;5052977;28;9647;-80
2022/12/17 21:49:04;;;;;;;;;55.00;48.50;;;;;;;;5054965;28;8840;-82
2022/12/17 21:51:32;;;;;;;;;52.25;46.75;;;;;;;;5064703;28;8875;-82
2022/12/17 21:54:01;;;;;;;;;74.25;62.75;;;;;;;;5067730;28;8942;-82
2022/12/17 21:56:29;;;;;;;;;67.75;57.25;;;;;;;;5054733;28;8901;-81
2022/12/17 21:58:58;;;;;;;;;75.50;62.25;;;;;;;;5067939;28;8919;-82
2022/12/17 22:01:28;;;;;;;;;67.50;54.25;;;;;;;;5066536;28;8830;-82
2022/12/17 22:03:58;;;;;;;;;65.75;53.25;;;;;;;;5048980;28;8851;-82
2022/12/17 22:06:27;;;;;;;;;62.25;54.25;;;;;;;;5048119;28;9675;-81
2022/12/17 22:08:55;;;;;;;;;58.75;49.50;;;;;;;;5067835;28;8893;-82
2022/12/17 22:11:24;;;;;;;;;76.50;63.25;;;;;;;;5050977;28;8854;-81
2022/12/17 22:14:05;;;;;;;;;76.25;61.25;;;;;;;;5065324;28;8857;-81
2022/12/17 22:16:40;;;;;;;;;69.75;59.50;;;;;;;;5067067;28;8836;-82
2022/12/17 22:19:08;;;;;;;;;72.75;58.75;;;;;;;;5065598;28;8846;-83
2022/12/17 22:21:39;;;;;;;;;62.00;54.00;;;;;;;;5065538;28;8968;-83
2022/12/17 22:24:07;;;;;;;;;63.75;54.00;;;;;;;;5053983;28;8858;-83
2022/12/17 22:26:35;;;;;;;;;71.75;55.75;;;;;;;;5071921;28;8804;-83
2022/12/17 22:29:04;;;;;;;;;76.75;59.50;;;;;;;;5074367;28;9008;-83
2022/12/17 22:34:17;;;;;;;;;78.50;64.00;;;;;;;;5075054;28;8837;-84
2022/12/17 22:36:45;;;;;;;;;48.25;46.50;;;;;;;;5071704;28;8826;-84
2022/12/17 22:39:14;;;;;;;;;81.00;66.75;;;;;;;;5079385;28;8846;-83
2022/12/17 22:44:27;;;;;;;;;71.00;61.00;;;;;;;;5065747;28;8816;-83
2022/12/17 22:46:57;;;;;;;;;66.00;56.50;;;;;;;;5054002;28;8878;-83
2022/12/17 22:49:25;;;;;;;;;72.25;59.75;;;;;;;;5054352;28;8853;-82
2022/12/17 22:51:53;;;;;;;;;65.75;56.00;;;;;;;;5054275;28;8971;-83
2022/12/17 22:54:20;;;;;;;;;67.50;55.75;;;;;;;;5055103;28;8885;-83
2022/12/17 22:56:48;;;;;;;;;72.75;58.75;;;;;;;;5071486;28;8838;-84
2022/12/17 22:59:16;;;;;;;;;81.50;63.25;;;;;;;;5052164;28;8837;-83
2022/12/17 23:01:43;;;;;;;;;71.50;59.25;;;;;;;;5072703;28;8798;-83
2022/12/17 23:04:14;;;;;;;;;53.75;49.75;;;;;;;;5070142;28;8870;-84
2022/12/17 23:06:43;;;;;;;;;71.00;60.50;;;;;;;;5069915;28;8932;-83
2022/12/17 23:09:12;;;;;;;;;80.50;65.00;;;;;;;;5055002;28;8834;-85
2022/12/17 23:11:39;;;;;;;;;69.00;57.00;;;;;;;;5094947;28;8986;-84
2022/12/17 23:14:09;;;;;;;;;61.00;52.50;;;;;;;;5081893;28;8964;-84
2022/12/17 23:16:39;;;;;;;;;74.25;60.00;;;;;;;;5062568;28;8861;-83
2022/12/17 23:19:08;;;;;;;;;62.75;53.75;;;;;;;;5092018;28;8860;-83
2022/12/17 23:21:37;;;;;;;;;74.75;60.00;;;;;;;;5071165;28;8853;-83
2022/12/17 23:24:07;;;;;;;;;67.50;56.25;;;;;;;;5072610;28;8860;-82
2022/12/17 23:26:38;;;;;;;;;57.50;50.75;;;;;;;;5074605;28;8865;-84
2022/12/17 23:29:09;;;;;;;;;69.00;57.50;;;;;;;;5065299;28;8845;-80
2022/12/17 23:31:38;;;;;;;;;72.75;60.00;;;;;;;;5074941;28;8787;-83
2022/12/17 23:34:06;;;;;;;;;67.75;58.00;;;;;;;;5080325;28;8909;-83
2022/12/17 23:36:36;;;;;;;;;69.25;58.00;;;;;;;;5080920;28;8874;-81
2022/12/17 23:39:04;;;;;;;;;64.25;55.00;;;;;;;;5076254;28;8856;-82
2022/12/17 23:41:32;;;;;;;;;71.75;61.25;;;;;;;;5064601;28;8997;-82
2022/12/17 23:44:00;;;;;;;;;64.25;52.25;;;;;;;;5048045;28;8852;-82
2022/12/17 23:46:30;;;;;;;;;66.50;52.50;;;;;;;;5073773;28;8861;-83
2022/12/17 23:48:59;;;;;;;;;70.25;59.00;;;;;;;;5058819;28;8887;-83
2022/12/17 23:51:28;;;;;;;;;71.00;60.00;;;;;;;;5068686;28;8913;-83
2022/12/17 23:53:58;;;;;;;;;70.25;58.50;;;;;;;;5069849;28;8843;-83
2022/12/17 23:56:27;;;;;;;;;80.00;63.50;;;;;;;;5072981;28;8900;-83
2022/12/17 23:58:56;;;;;;;;;59.25;53.00;;;;;;;;5073242;28;8836;-83
